createdAt,value
2018-08-20T00:00:13.500Z,0
2018-08-20T00:01:15.898Z,0
2018-08-20T00:02:17.990Z,0
2018-08-20T00:03:20.100Z,0
2018-08-20T00:04:22.204Z,0
2018-08-20T00:05:24.613Z,0
2018-08-20T00:06:26.702Z,0
2018-08-20T00:07:28.813Z,0
2018-08-20T00:08:30.908Z,0
2018-08-20T00:09:33.006Z,0
2018-08-20T00:10:35.120Z,0
2018-08-20T00:11:37.215Z,0
2018-08-20T00:12:39.320Z,0
2018-08-20T00:13:41.822Z,0
2018-08-20T00:14:43.923Z,0
2018-08-20T00:15:46.304Z,0
2018-08-20T00:16:48.405Z,0
2018-08-20T00:17:50.514Z,0
2018-08-20T00:18:52.912Z,0
2018-08-20T00:19:55.392Z,0
2018-08-20T00:20:57.491Z,0
2018-08-20T00:21:59.890Z,0
2018-08-20T00:23:01.979Z,0
2018-08-20T00:24:04.375Z,0
2018-08-20T00:25:06.479Z,0
2018-08-20T00:26:08.966Z,0
2018-08-20T00:27:11.079Z,0
2018-08-20T00:28:13.174Z,0
2018-08-20T00:29:15.276Z,0
2018-08-20T00:30:17.371Z,0
2018-08-20T00:31:19.488Z,0
2018-08-20T00:32:21.582Z,0
2018-08-20T00:33:23.973Z,0
2018-08-20T00:34:26.989Z,0
2018-08-20T00:35:29.070Z,0
2018-08-20T00:36:31.571Z,0
2018-08-20T00:37:33.963Z,0
2018-08-20T00:38:36.450Z,0
2018-08-20T00:39:38.543Z,0
2018-08-20T00:40:40.657Z,0
2018-08-20T00:41:42.754Z,0
2018-08-20T00:42:45.241Z,0
2018-08-20T00:43:47.354Z,0
2018-08-20T00:44:49.445Z,0
2018-08-20T00:45:51.544Z,0
2018-08-20T00:46:53.652Z,0
2018-08-20T00:47:55.755Z,0
2018-08-20T00:48:57.848Z,0
2018-08-20T00:49:59.955Z,0
2018-08-20T00:51:02.051Z,0
2018-08-20T00:52:04.158Z,0
2018-08-20T00:53:06.657Z,0
2018-08-20T00:54:08.762Z,0
2018-08-20T00:55:10.859Z,0
2018-08-20T00:56:12.945Z,0
2018-08-20T00:57:15.439Z,0
2018-08-20T00:58:17.843Z,0
2018-08-20T00:59:20.225Z,0
2018-08-20T01:00:22.631Z,0
2018-08-20T01:01:24.731Z,0
2018-08-20T01:02:27.430Z,0
2018-08-20T01:03:29.518Z,0
2018-08-20T01:04:31.634Z,0
2018-08-20T01:05:33.730Z,0
2018-08-20T01:06:35.832Z,0
2018-08-20T01:07:37.941Z,0
2018-08-20T01:08:40.024Z,0
2018-08-20T01:09:42.135Z,0
2018-08-20T01:10:44.237Z,0
2018-08-20T01:11:46.342Z,0
2018-08-20T01:12:48.425Z,0
2018-08-20T01:13:50.830Z,0
2018-08-20T01:14:52.924Z,0
2018-08-20T01:15:55.022Z,0
2018-08-20T01:16:57.525Z,0
2018-08-20T01:17:59.617Z,0
2018-08-20T01:19:01.722Z,0
2018-08-20T01:20:04.616Z,0
2018-08-20T01:21:06.714Z,0
2018-08-20T01:22:08.808Z,0
2018-08-20T01:23:10.915Z,0
2018-08-20T01:24:13.013Z,0
2018-08-20T01:25:15.121Z,0
2018-08-20T01:26:17.231Z,0
2018-08-20T01:27:19.349Z,0
2018-08-20T01:28:21.440Z,0
2018-08-20T01:29:23.554Z,0
2018-08-20T01:30:25.648Z,0
2018-08-20T01:31:27.745Z,0
2018-08-20T01:32:30.131Z,0
2018-08-20T01:33:32.683Z,0
2018-08-20T01:34:34.782Z,0
2018-08-20T01:35:37.177Z,0
2018-08-20T01:36:39.270Z,0
2018-08-20T01:37:41.386Z,0
2018-08-20T01:38:43.475Z,0
2018-08-20T01:39:45.576Z,0
2018-08-20T01:40:47.685Z,0
2018-08-20T01:41:49.773Z,0
2018-08-20T01:42:51.883Z,0
2018-08-20T01:43:53.984Z,0
2018-08-20T01:44:56.090Z,0
2018-08-20T01:45:58.175Z,0
2018-08-20T01:47:00.282Z,0
2018-08-20T01:48:02.382Z,0
2018-08-20T01:49:04.479Z,0
2018-08-20T01:50:06.600Z,0
2018-08-20T01:51:08.689Z,0
2018-08-20T01:52:10.790Z,0
2018-08-20T01:53:12.894Z,0
2018-08-20T01:54:15.009Z,0
2018-08-20T01:55:17.096Z,0
2018-08-20T01:56:19.203Z,0
2018-08-20T01:57:21.592Z,0
2018-08-20T01:58:23.993Z,0
2018-08-20T01:59:26.107Z,0
2018-08-20T02:00:28.213Z,0
2018-08-20T02:01:30.306Z,0
2018-08-20T02:02:32.420Z,0
2018-08-20T02:03:34.816Z,0
2018-08-20T02:04:36.917Z,0
2018-08-20T02:05:39.027Z,0
2018-08-20T02:06:41.115Z,0
2018-08-20T02:07:43.218Z,0
2018-08-20T02:08:45.316Z,0
2018-08-20T02:09:47.427Z,0
2018-08-20T02:10:49.516Z,0
2018-08-20T02:11:51.631Z,0
2018-08-20T02:12:53.736Z,0
2018-08-20T02:13:55.829Z,0
2018-08-20T02:14:57.945Z,0
2018-08-20T02:16:00.048Z,0
2018-08-20T02:17:02.441Z,0
2018-08-20T02:18:04.853Z,0
2018-08-20T02:19:07.260Z,0
2018-08-20T02:20:09.351Z,0
2018-08-20T02:21:11.457Z,0
2018-08-20T02:22:13.558Z,0
2018-08-20T02:23:15.646Z,0
2018-08-20T02:24:17.753Z,0
2018-08-20T02:25:20.150Z,0
2018-08-20T02:26:22.238Z,0
2018-08-20T02:27:24.342Z,0
2018-08-20T02:28:26.453Z,0
2018-08-20T02:29:28.552Z,0
2018-08-20T02:30:30.957Z,0
2018-08-20T02:31:33.060Z,0
2018-08-20T02:32:35.441Z,0
2018-08-20T02:33:37.546Z,0
2018-08-20T02:34:39.656Z,0
2018-08-20T02:35:42.033Z,0
2018-08-20T02:36:44.144Z,0
2018-08-20T02:37:46.251Z,0
2018-08-20T02:38:48.731Z,0
2018-08-20T02:39:51.141Z,0
2018-08-20T02:40:53.244Z,0
2018-08-20T02:41:55.638Z,0
2018-08-20T02:42:57.733Z,0
2018-08-20T02:43:59.853Z,0
2018-08-20T02:45:01.944Z,0
2018-08-20T02:46:04.331Z,0
2018-08-20T02:47:07.027Z,0
2018-08-20T02:48:09.424Z,0
2018-08-20T02:49:11.519Z,0
2018-08-20T02:50:13.620Z,0
2018-08-20T02:51:15.720Z,0
2018-08-20T02:52:17.837Z,0
2018-08-20T02:53:19.938Z,0
2018-08-20T02:54:22.045Z,0
2018-08-20T02:55:24.151Z,0
2018-08-20T02:56:26.240Z,0
2018-08-20T02:57:29.026Z,0
2018-08-20T02:58:31.705Z,0
2018-08-20T02:59:33.797Z,0
2018-08-20T03:00:36.185Z,0
2018-08-20T03:01:38.294Z,0
2018-08-20T03:02:40.691Z,0
2018-08-20T03:03:42.873Z,0
2018-08-20T03:04:44.906Z,0
2018-08-20T03:05:47.992Z,0
2018-08-20T03:06:50.099Z,0
2018-08-20T03:07:52.216Z,0
2018-08-20T03:08:54.611Z,0
2018-08-20T03:09:57.006Z,0
2018-08-20T03:10:59.113Z,0
2018-08-20T03:12:01.513Z,0
2018-08-20T03:13:03.627Z,0
2018-08-20T03:14:05.723Z,0
2018-08-20T03:15:07.828Z,0
2018-08-20T03:16:09.929Z,0
2018-08-20T03:17:12.039Z,0
2018-08-20T03:18:14.137Z,0
2018-08-20T03:19:16.236Z,0
2018-08-20T03:20:18.366Z,0
2018-08-20T03:21:20.460Z,0
2018-08-20T03:22:22.580Z,0
2018-08-20T03:23:24.962Z,0
2018-08-20T03:24:27.456Z,0
2018-08-20T03:25:29.836Z,0
2018-08-20T03:26:31.941Z,0
2018-08-20T03:27:34.042Z,0
2018-08-20T03:28:36.550Z,0
2018-08-20T03:29:38.630Z,0
2018-08-20T03:30:41.130Z,0
2018-08-20T03:31:43.284Z,0
2018-08-20T03:32:46.144Z,0
2018-08-20T03:33:48.639Z,0
2018-08-20T03:34:51.728Z,0
2018-08-20T03:35:54.532Z,0
2018-08-20T03:36:57.062Z,0
2018-08-20T03:37:59.475Z,0
2018-08-20T03:39:01.556Z,0
2018-08-20T03:40:03.659Z,0
2018-08-20T03:41:05.772Z,0
2018-08-20T03:42:07.857Z,0
2018-08-20T03:43:10.349Z,0
2018-08-20T03:44:12.453Z,0
2018-08-20T03:45:14.937Z,0
2018-08-20T03:46:17.054Z,0
2018-08-20T03:47:19.168Z,0
2018-08-20T03:48:21.969Z,0
2018-08-20T03:49:24.067Z,0
2018-08-20T03:50:26.187Z,0
2018-08-20T03:51:28.286Z,0
2018-08-20T03:52:30.387Z,0
2018-08-20T03:53:32.494Z,0
2018-08-20T03:54:34.581Z,0
2018-08-20T03:55:36.693Z,0
2018-08-20T03:56:38.794Z,0
2018-08-20T03:57:40.899Z,0
2018-08-20T03:58:42.988Z,0
2018-08-20T03:59:46.074Z,0
2018-08-20T04:00:48.175Z,0
2018-08-20T04:01:50.278Z,1
2018-08-20T04:02:52.397Z,1
2018-08-20T04:03:54.487Z,1
2018-08-20T04:04:56.978Z,1
2018-08-20T04:05:59.049Z,1
2018-08-20T04:07:01.150Z,1
2018-08-20T04:08:03.272Z,1
2018-08-20T04:09:05.682Z,1
2018-08-20T04:10:08.384Z,1
2018-08-20T04:11:10.793Z,1
2018-08-20T04:12:12.885Z,2
2018-08-20T04:13:15.292Z,2
2018-08-20T04:14:17.402Z,2
2018-08-20T04:15:19.494Z,2
2018-08-20T04:16:21.598Z,2
2018-08-20T04:17:24.443Z,2
2018-08-20T04:18:26.534Z,3
2018-08-20T04:19:28.652Z,3
2018-08-20T04:20:31.139Z,3
2018-08-20T04:21:33.247Z,3
2018-08-20T04:22:35.738Z,3
2018-08-20T04:23:37.853Z,3
2018-08-20T04:24:39.948Z,3
2018-08-20T04:25:42.341Z,3
2018-08-20T04:26:44.452Z,4
2018-08-20T04:27:46.546Z,4
2018-08-20T04:28:48.650Z,4
2018-08-20T04:29:50.763Z,4
2018-08-20T04:30:52.867Z,5
2018-08-20T04:31:54.954Z,5
2018-08-20T04:32:57.457Z,5
2018-08-20T04:33:59.556Z,6
2018-08-20T04:35:02.047Z,6
2018-08-20T04:36:04.472Z,6
2018-08-20T04:37:06.568Z,7
2018-08-20T04:38:08.669Z,7
2018-08-20T04:39:10.817Z,7
2018-08-20T04:40:12.877Z,7
2018-08-20T04:41:14.970Z,7
2018-08-20T04:42:17.112Z,7
2018-08-20T04:43:19.881Z,8
2018-08-20T04:44:21.986Z,8
2018-08-20T04:45:24.096Z,8
2018-08-20T04:46:26.201Z,8
2018-08-20T04:47:28.587Z,9
2018-08-20T04:48:30.710Z,10
2018-08-20T04:49:32.805Z,10
2018-08-20T04:50:34.930Z,10
2018-08-20T04:51:37.955Z,10
2018-08-20T04:52:40.042Z,11
2018-08-20T04:53:42.159Z,12
2018-08-20T04:54:44.263Z,12
2018-08-20T04:55:46.373Z,12
2018-08-20T04:56:48.461Z,13
2018-08-20T04:57:51.252Z,13
2018-08-20T04:58:53.355Z,13
2018-08-20T04:59:55.447Z,13
2018-08-20T05:00:57.568Z,13
2018-08-20T05:01:59.970Z,13
2018-08-20T05:03:02.384Z,13
2018-08-20T05:04:04.853Z,14
2018-08-20T05:05:06.908Z,14
2018-08-20T05:06:09.002Z,15
2018-08-20T05:07:11.110Z,15
2018-08-20T05:08:13.231Z,15
2018-08-20T05:09:15.319Z,15
2018-08-20T05:10:17.716Z,14
2018-08-20T05:11:19.816Z,14
2018-08-20T05:12:21.909Z,14
2018-08-20T05:13:24.012Z,12
2018-08-20T05:14:26.504Z,13
2018-08-20T05:15:28.610Z,14
2018-08-20T05:16:30.720Z,15
2018-08-20T05:17:32.824Z,15
2018-08-20T05:18:34.926Z,16
2018-08-20T05:19:37.028Z,16
2018-08-20T05:20:39.435Z,17
2018-08-20T05:21:41.834Z,18
2018-08-20T05:22:43.937Z,19
2018-08-20T05:23:46.040Z,21
2018-08-20T05:24:48.148Z,22
2018-08-20T05:25:50.250Z,22
2018-08-20T05:26:52.646Z,22
2018-08-20T05:27:54.748Z,23
2018-08-20T05:28:57.160Z,25
2018-08-20T05:29:59.255Z,24
2018-08-20T05:31:01.671Z,25
2018-08-20T05:32:03.774Z,24
2018-08-20T05:33:06.159Z,23
2018-08-20T05:34:08.581Z,23
2018-08-20T05:35:10.675Z,24
2018-08-20T05:36:12.775Z,23
2018-08-20T05:37:15.156Z,23
2018-08-20T05:38:17.271Z,24
2018-08-20T05:39:19.367Z,24
2018-08-20T05:40:21.473Z,23
2018-08-20T05:41:23.870Z,23
2018-08-20T05:42:25.961Z,24
2018-08-20T05:43:28.765Z,23
2018-08-20T05:44:30.868Z,22
2018-08-20T05:45:32.970Z,20
2018-08-20T05:46:35.361Z,20
2018-08-20T05:47:37.861Z,22
2018-08-20T05:48:39.956Z,24
2018-08-20T05:49:42.062Z,24
2018-08-20T05:50:44.163Z,24
2018-08-20T05:51:46.270Z,23
2018-08-20T05:52:48.369Z,22
2018-08-20T05:53:50.775Z,22
2018-08-20T05:54:52.864Z,22
2018-08-20T05:55:54.970Z,24
2018-08-20T05:56:57.071Z,25
2018-08-20T05:57:59.175Z,25
2018-08-20T05:59:01.560Z,24
2018-08-20T06:00:03.665Z,22
2018-08-20T06:01:05.767Z,24
2018-08-20T06:02:07.879Z,23
2018-08-20T06:03:09.966Z,24
2018-08-20T06:04:12.368Z,24
2018-08-20T06:05:14.470Z,23
2018-08-20T06:06:16.565Z,21
2018-08-20T06:07:18.688Z,21
2018-08-20T06:08:20.779Z,21
2018-08-20T06:09:22.879Z,20
2018-08-20T06:10:24.976Z,21
2018-08-20T06:11:27.403Z,18
2018-08-20T06:12:29.788Z,17
2018-08-20T06:13:31.894Z,18
2018-08-20T06:14:33.996Z,23
2018-08-20T06:15:36.088Z,29
2018-08-20T06:16:38.493Z,32
2018-08-20T06:17:40.594Z,33
2018-08-20T06:18:43.371Z,31
2018-08-20T06:19:45.477Z,26
2018-08-20T06:20:47.877Z,25
2018-08-20T06:21:49.975Z,23
2018-08-20T06:22:52.377Z,27
2018-08-20T06:23:54.534Z,29
2018-08-20T06:24:56.667Z,31
2018-08-20T06:25:58.726Z,31
2018-08-20T06:27:00.844Z,31
2018-08-20T06:28:02.933Z,30
2018-08-20T06:29:05.721Z,32
2018-08-20T06:30:07.825Z,36
2018-08-20T06:31:09.927Z,37
2018-08-20T06:32:12.034Z,38
2018-08-20T06:33:14.133Z,35
2018-08-20T06:34:16.526Z,38
2018-08-20T06:35:18.912Z,38
2018-08-20T06:36:21.017Z,39
2018-08-20T06:37:23.814Z,38
2018-08-20T06:38:25.921Z,37
2018-08-20T06:39:28.017Z,37
2018-08-20T06:40:30.813Z,39
2018-08-20T06:41:32.963Z,45
2018-08-20T06:42:35.008Z,45
2018-08-20T06:43:37.106Z,41
2018-08-20T06:44:39.220Z,41
2018-08-20T06:45:41.317Z,43
2018-08-20T06:46:43.421Z,44
2018-08-20T06:47:45.542Z,43
2018-08-20T06:48:48.370Z,44
2018-08-20T06:49:50.478Z,44
2018-08-20T06:50:52.893Z,43
2018-08-20T06:51:54.990Z,46
2018-08-20T06:52:57.098Z,51
2018-08-20T06:53:59.210Z,48
2018-08-20T06:55:01.604Z,41
2018-08-20T06:56:03.720Z,37
2018-08-20T06:57:06.416Z,32
2018-08-20T06:58:08.802Z,28
2018-08-20T06:59:10.905Z,35
2018-08-20T07:00:13.018Z,44
2018-08-20T07:01:15.108Z,40
2018-08-20T07:02:17.218Z,35
2018-08-20T07:03:19.330Z,34
2018-08-20T07:04:21.428Z,27
2018-08-20T07:05:24.225Z,25
2018-08-20T07:06:26.382Z,25
2018-08-20T07:07:28.725Z,22
2018-08-20T07:08:30.823Z,21
2018-08-20T07:09:33.226Z,23
2018-08-20T07:10:35.326Z,22
2018-08-20T07:11:37.420Z,25
2018-08-20T07:12:39.833Z,23
2018-08-20T07:13:41.923Z,25
2018-08-20T07:14:44.039Z,25
2018-08-20T07:15:46.145Z,25
2018-08-20T07:16:48.579Z,19
2018-08-20T07:17:50.650Z,21
2018-08-20T07:18:52.784Z,24
2018-08-20T07:19:54.863Z,27
2018-08-20T07:20:56.966Z,33
2018-08-20T07:21:59.779Z,32
2018-08-20T07:23:02.564Z,37
2018-08-20T07:24:04.613Z,40
2018-08-20T07:25:06.724Z,35
2018-08-20T07:26:08.825Z,35
2018-08-20T07:27:10.919Z,32
2018-08-20T07:28:13.024Z,29
2018-08-20T07:29:15.122Z,25
2018-08-20T07:30:17.525Z,22
2018-08-20T07:31:19.639Z,18
2018-08-20T07:32:21.741Z,16
2018-08-20T07:33:23.838Z,14
2018-08-20T07:34:25.955Z,13
2018-08-20T07:35:28.279Z,16
2018-08-20T07:36:31.337Z,23
2018-08-20T07:37:34.956Z,28
2018-08-20T07:38:38.022Z,29
2018-08-20T07:39:41.805Z,35
2018-08-20T07:40:43.924Z,43
2018-08-20T07:41:46.420Z,52
2018-08-20T07:42:49.536Z,56
2018-08-20T07:43:52.795Z,57
2018-08-20T07:44:55.372Z,46
2018-08-20T07:45:57.618Z,38
2018-08-20T07:47:01.297Z,38
2018-08-20T07:48:04.625Z,41
2018-08-20T07:49:07.784Z,44
2018-08-20T07:50:10.222Z,54
2018-08-20T07:51:13.177Z,58
2018-08-20T07:52:15.789Z,54
2018-08-20T07:53:18.378Z,56
2018-08-20T07:54:21.996Z,54
2018-08-20T07:55:25.025Z,51
2018-08-20T07:56:28.097Z,45
2018-08-20T07:57:30.908Z,45
2018-08-20T07:58:33.769Z,52
2018-08-20T07:59:36.654Z,61
2018-08-20T08:00:39.836Z,52
2018-08-20T08:01:43.118Z,43
2018-08-20T08:02:45.979Z,38
2018-08-20T08:03:48.717Z,37
2018-08-20T08:04:51.664Z,37
2018-08-20T08:05:54.929Z,38
2018-08-20T08:06:57.706Z,37
2018-08-20T08:08:02.047Z,37
2018-08-20T08:09:06.328Z,37
2018-08-20T08:10:09.484Z,37
2018-08-20T08:11:12.555Z,36
2018-08-20T08:12:16.060Z,34
2018-08-20T08:13:19.665Z,36
2018-08-20T08:14:24.653Z,37
2018-08-20T08:15:28.717Z,41
2018-08-20T08:16:31.553Z,45
2018-08-20T08:17:34.375Z,47
2018-08-20T08:18:40.970Z,48
2018-08-20T08:19:44.468Z,53
2018-08-20T08:20:47.348Z,64
2018-08-20T08:21:49.510Z,71
2018-08-20T08:22:52.134Z,78
2018-08-20T08:23:55.254Z,77
2018-08-20T08:24:57.379Z,82
2018-08-20T08:25:59.763Z,80
2018-08-20T08:27:01.885Z,74
2018-08-20T08:28:04.307Z,68
2018-08-20T08:29:06.398Z,71
2018-08-20T08:30:08.509Z,69
2018-08-20T08:31:11.189Z,65
2018-08-20T08:32:13.286Z,65
2018-08-20T08:33:15.389Z,65
2018-08-20T08:34:17.793Z,69
2018-08-20T08:35:19.901Z,78
2018-08-20T08:36:22.011Z,88
2018-08-20T08:37:24.119Z,99
2018-08-20T08:38:26.218Z,156
2018-08-20T08:39:28.333Z,169
2018-08-20T08:40:30.450Z,100
2018-08-20T08:41:32.929Z,107
2018-08-20T08:42:35.437Z,201
2018-08-20T08:43:37.548Z,136
2018-08-20T08:44:39.939Z,263
2018-08-20T08:45:42.060Z,123
2018-08-20T08:46:44.854Z,112
2018-08-20T08:47:46.961Z,123
2018-08-20T08:48:49.066Z,141
2018-08-20T08:49:51.707Z,213
2018-08-20T08:50:53.669Z,122
2018-08-20T08:51:56.446Z,114
2018-08-20T08:52:59.945Z,111
2018-08-20T08:54:03.260Z,138
2018-08-20T08:55:06.983Z,223
2018-08-20T08:56:10.098Z,309
2018-08-20T08:57:13.052Z,267
2018-08-20T08:58:16.607Z,136
2018-08-20T08:59:19.616Z,120
2018-08-20T09:00:23.353Z,126
2018-08-20T09:01:27.148Z,131
2018-08-20T09:02:30.878Z,135
2018-08-20T09:03:33.683Z,131
2018-08-20T09:04:37.267Z,135
2018-08-20T09:05:41.191Z,133
2018-08-20T09:06:45.083Z,207
2018-08-20T09:07:48.684Z,255
2018-08-20T09:08:51.891Z,161
2018-08-20T09:09:55.514Z,116
2018-08-20T09:10:58.360Z,174
2018-08-20T09:12:01.320Z,406
2018-08-20T09:13:04.299Z,268
2018-08-20T09:14:07.715Z,356
2018-08-20T09:15:10.125Z,184
2018-08-20T09:16:13.120Z,155
2018-08-20T09:17:16.446Z,104
2018-08-20T09:18:19.627Z,114
2018-08-20T09:19:22.308Z,171
2018-08-20T09:20:25.292Z,134
2018-08-20T09:21:28.176Z,302
2018-08-20T09:22:31.533Z,280
2018-08-20T09:23:34.464Z,416
2018-08-20T09:24:37.040Z,113
2018-08-20T09:25:40.503Z,356
2018-08-20T09:26:44.305Z,348
2018-08-20T09:27:47.728Z,119
2018-08-20T09:28:50.914Z,136
2018-08-20T09:29:54.416Z,109
2018-08-20T09:30:58.549Z,182
2018-08-20T09:32:01.837Z,425
2018-08-20T09:33:04.268Z,356
2018-08-20T09:34:07.001Z,190
2018-08-20T09:35:09.105Z,116
2018-08-20T09:36:11.516Z,312
2018-08-20T09:37:13.910Z,108
2018-08-20T09:38:16.550Z,108
2018-08-20T09:39:18.599Z,398
2018-08-20T09:40:20.711Z,209
2018-08-20T09:41:22.810Z,374
2018-08-20T09:42:24.928Z,275
2018-08-20T09:43:27.330Z,229
2018-08-20T09:44:29.444Z,60
2018-08-20T09:45:31.569Z,36
2018-08-20T09:46:33.680Z,27
2018-08-20T09:47:35.779Z,24
2018-08-20T09:48:37.901Z,30
2018-08-20T09:49:40.297Z,29
2018-08-20T09:50:42.403Z,27
2018-08-20T09:51:44.525Z,28
2018-08-20T09:52:46.618Z,29
2018-08-20T09:53:48.730Z,29
2018-08-20T09:54:50.843Z,26
2018-08-20T09:55:52.963Z,25
2018-08-20T09:56:55.345Z,25
2018-08-20T09:57:57.465Z,24
2018-08-20T09:58:59.621Z,25
2018-08-20T10:00:02.003Z,25
2018-08-20T10:01:04.091Z,26
2018-08-20T10:02:06.190Z,28
2018-08-20T10:03:08.304Z,34
2018-08-20T10:04:10.409Z,40
2018-08-20T10:05:12.578Z,43
2018-08-20T10:06:14.632Z,41
2018-08-20T10:07:17.496Z,32
2018-08-20T10:08:19.591Z,22
2018-08-20T10:09:21.685Z,20
2018-08-20T10:10:23.804Z,21
2018-08-20T10:11:25.911Z,22
2018-08-20T10:12:28.010Z,22
2018-08-20T10:13:30.501Z,21
2018-08-20T10:14:32.622Z,25
2018-08-20T10:15:34.724Z,30
2018-08-20T10:16:36.843Z,36
2018-08-20T10:17:38.951Z,40
2018-08-20T10:18:41.053Z,45
2018-08-20T10:19:43.154Z,50
2018-08-20T10:20:45.273Z,55
2018-08-20T10:21:47.365Z,61
2018-08-20T10:22:49.476Z,65
2018-08-20T10:23:51.588Z,70
2018-08-20T10:24:54.002Z,80
2018-08-20T10:25:56.097Z,91
2018-08-20T10:26:58.205Z,98
2018-08-20T10:28:00.312Z,107
2018-08-20T10:29:02.428Z,118
2018-08-20T10:30:04.520Z,138
2018-08-20T10:31:07.338Z,218
2018-08-20T10:32:09.591Z,198
2018-08-20T10:33:11.550Z,134
2018-08-20T10:34:14.061Z,144
2018-08-20T10:35:16.162Z,108
2018-08-20T10:36:18.270Z,101
2018-08-20T10:37:20.377Z,98
2018-08-20T10:38:22.794Z,141
2018-08-20T10:39:24.897Z,137
2018-08-20T10:40:27.299Z,120
2018-08-20T10:41:29.411Z,111
2018-08-20T10:42:31.504Z,108
2018-08-20T10:43:33.619Z,109
2018-08-20T10:44:35.726Z,117
2018-08-20T10:45:37.826Z,126
2018-08-20T10:46:39.952Z,135
2018-08-20T10:47:42.058Z,166
2018-08-20T10:48:44.161Z,198
2018-08-20T10:49:46.277Z,286
2018-08-20T10:50:48.387Z,397
2018-08-20T10:51:50.487Z,329
2018-08-20T10:52:52.594Z,247
2018-08-20T10:53:54.991Z,200
2018-08-20T10:54:57.087Z,193
2018-08-20T10:55:59.198Z,214
2018-08-20T10:57:01.315Z,260
2018-08-20T10:58:03.704Z,403
2018-08-20T10:59:05.830Z,356
2018-08-20T11:00:07.935Z,307
2018-08-20T11:01:10.043Z,441
2018-08-20T11:02:12.592Z,430
2018-08-20T11:03:14.700Z,458
2018-08-20T11:04:17.109Z,264
2018-08-20T11:05:19.519Z,354
2018-08-20T11:06:21.625Z,455
2018-08-20T11:07:23.751Z,443
2018-08-20T11:08:25.857Z,187
2018-08-20T11:09:27.967Z,164
2018-08-20T11:10:30.077Z,102
2018-08-20T11:11:32.200Z,89
2018-08-20T11:12:34.302Z,90
2018-08-20T11:13:36.415Z,96
2018-08-20T11:14:38.920Z,102
2018-08-20T11:15:41.015Z,112
2018-08-20T11:16:43.143Z,128
2018-08-20T11:17:45.250Z,151
2018-08-20T11:18:47.877Z,144
2018-08-20T11:19:49.921Z,138
2018-08-20T11:20:52.042Z,139
2018-08-20T11:21:54.152Z,145
2018-08-20T11:22:56.269Z,150
2018-08-20T11:23:58.381Z,139
2018-08-20T11:25:00.485Z,132
2018-08-20T11:26:02.594Z,129
2018-08-20T11:27:04.714Z,134
2018-08-20T11:28:06.814Z,138
2018-08-20T11:29:08.935Z,134
2018-08-20T11:30:11.521Z,125
2018-08-20T11:31:13.583Z,110
2018-08-20T11:32:15.708Z,98
2018-08-20T11:33:18.108Z,89
2018-08-20T11:34:20.222Z,78
2018-08-20T11:35:22.325Z,69
2018-08-20T11:36:24.473Z,63
2018-08-20T11:37:26.558Z,62
2018-08-20T11:38:28.664Z,62
2018-08-20T11:39:30.783Z,68
2018-08-20T11:40:33.578Z,97
2018-08-20T11:41:35.683Z,494
2018-08-20T11:42:37.806Z,194
2018-08-20T11:43:40.224Z,359
2018-08-20T11:44:42.351Z,160
2018-08-20T11:45:44.455Z,140
2018-08-20T11:46:46.567Z,156
2018-08-20T11:47:48.682Z,136
2018-08-20T11:48:50.782Z,194
2018-08-20T11:49:53.215Z,133
2018-08-20T11:50:55.308Z,129
2018-08-20T11:51:57.422Z,122
2018-08-20T11:52:59.533Z,124
2018-08-20T11:54:01.654Z,132
2018-08-20T11:55:03.768Z,140
2018-08-20T11:56:05.893Z,133
2018-08-20T11:57:08.007Z,134
2018-08-20T11:58:10.108Z,143
2018-08-20T11:59:12.219Z,150
2018-08-20T12:00:14.353Z,151
2018-08-20T12:01:16.755Z,133
2018-08-20T12:02:18.872Z,118
2018-08-20T12:03:20.986Z,104
2018-08-20T12:04:23.092Z,93
2018-08-20T12:05:25.235Z,82
2018-08-20T12:06:27.345Z,71
2018-08-20T12:07:30.282Z,62
2018-08-20T12:08:32.621Z,56
2018-08-20T12:09:34.750Z,50
2018-08-20T12:10:36.856Z,45
2018-08-20T12:11:39.808Z,43
2018-08-20T12:12:42.540Z,37
2018-08-20T12:13:45.094Z,31
2018-08-20T12:14:47.937Z,24
2018-08-20T12:15:50.112Z,20
2018-08-20T12:16:53.239Z,19
2018-08-20T12:17:55.622Z,19
2018-08-20T12:18:58.650Z,19
2018-08-20T12:20:01.359Z,22
2018-08-20T12:21:03.464Z,29
2018-08-20T12:22:05.594Z,40
2018-08-20T12:23:08.539Z,57
2018-08-20T12:24:10.610Z,80
2018-08-20T12:25:12.726Z,111
2018-08-20T12:26:14.841Z,167
2018-08-20T12:27:17.916Z,470
2018-08-20T12:28:20.076Z,480
2018-08-20T12:29:22.619Z,222
2018-08-20T12:30:24.735Z,214
2018-08-20T12:31:26.852Z,389
2018-08-20T12:32:28.962Z,373
2018-08-20T12:33:31.064Z,184
2018-08-20T12:34:33.194Z,145
2018-08-20T12:35:35.696Z,128
2018-08-20T12:36:37.805Z,110
2018-08-20T12:37:40.217Z,106
2018-08-20T12:38:42.316Z,82
2018-08-20T12:39:44.760Z,93
2018-08-20T12:40:46.862Z,109
2018-08-20T12:41:48.982Z,366
2018-08-20T12:42:51.082Z,113
2018-08-20T12:43:53.210Z,115
2018-08-20T12:44:55.324Z,125
2018-08-20T12:45:57.429Z,152
2018-08-20T12:46:59.555Z,221
2018-08-20T12:48:02.048Z,194
2018-08-20T12:49:04.158Z,246
2018-08-20T12:50:06.271Z,248
2018-08-20T12:51:08.407Z,268
2018-08-20T12:52:10.522Z,239
2018-08-20T12:53:13.022Z,219
2018-08-20T12:54:15.144Z,249
2018-08-20T12:55:17.242Z,464
2018-08-20T12:56:19.353Z,150
2018-08-20T12:57:21.470Z,143
2018-08-20T12:58:23.618Z,125
2018-08-20T12:59:25.713Z,97
2018-08-20T13:00:28.138Z,79
2018-08-20T13:01:30.610Z,206
2018-08-20T13:02:32.713Z,79
2018-08-20T13:03:34.827Z,77
2018-08-20T13:04:37.024Z,77
2018-08-20T13:05:39.136Z,82
2018-08-20T13:06:41.245Z,85
2018-08-20T13:07:43.370Z,97
2018-08-20T13:08:45.484Z,103
2018-08-20T13:09:49.506Z,99
2018-08-20T13:10:51.626Z,94
2018-08-20T13:11:53.724Z,80
2018-08-20T13:12:55.842Z,70
2018-08-20T13:13:57.954Z,55
2018-08-20T13:15:00.370Z,47
2018-08-20T13:16:03.225Z,38
2018-08-20T13:17:05.474Z,35
2018-08-20T13:18:07.874Z,32
2018-08-20T13:19:10.692Z,32
2018-08-20T13:20:13.208Z,32
2018-08-20T13:21:15.318Z,31
2018-08-20T13:22:17.433Z,32
2018-08-20T13:23:19.543Z,32
2018-08-20T13:24:21.672Z,33
2018-08-20T13:25:24.474Z,37
2018-08-20T13:26:26.991Z,45
2018-08-20T13:27:29.097Z,64
2018-08-20T13:28:31.482Z,89
2018-08-20T13:29:33.608Z,107
2018-08-20T13:30:36.197Z,297
2018-08-20T13:31:38.660Z,130
2018-08-20T13:32:41.220Z,263
2018-08-20T13:33:43.338Z,170
2018-08-20T13:34:45.453Z,181
2018-08-20T13:35:47.862Z,251
2018-08-20T13:36:49.970Z,240
2018-08-20T13:37:52.092Z,200
2018-08-20T13:38:54.209Z,223
2018-08-20T13:39:56.602Z,202
2018-08-20T13:40:58.724Z,170
2018-08-20T13:42:00.838Z,187
2018-08-20T13:43:03.267Z,121
2018-08-20T13:44:05.475Z,107
2018-08-20T13:45:07.483Z,101
2018-08-20T13:46:09.600Z,103
2018-08-20T13:47:11.713Z,101
2018-08-20T13:48:13.847Z,239
2018-08-20T13:49:15.952Z,271
2018-08-20T13:50:18.669Z,130
2018-08-20T13:51:21.182Z,78
2018-08-20T13:52:23.576Z,63
2018-08-20T13:53:25.992Z,67
2018-08-20T13:54:28.096Z,91
2018-08-20T13:55:30.594Z,280
2018-08-20T13:56:32.699Z,221
2018-08-20T13:57:34.824Z,107
2018-08-20T13:58:36.928Z,87
2018-08-20T13:59:39.036Z,82
2018-08-20T14:00:41.153Z,89
2018-08-20T14:01:43.251Z,273
2018-08-20T14:02:45.681Z,363
2018-08-20T14:03:47.794Z,129
2018-08-20T14:04:50.189Z,73
2018-08-20T14:05:52.316Z,58
2018-08-20T14:06:55.310Z,51
2018-08-20T14:07:57.417Z,49
2018-08-20T14:08:59.543Z,51
2018-08-20T14:10:01.666Z,61
2018-08-20T14:11:04.085Z,87
2018-08-20T14:12:06.197Z,136
2018-08-20T14:13:08.694Z,253
2018-08-20T14:14:10.821Z,331
2018-08-20T14:15:12.927Z,300
2018-08-20T14:16:15.038Z,282
2018-08-20T14:17:17.158Z,299
2018-08-20T14:18:19.547Z,153
2018-08-20T14:19:21.662Z,298
2018-08-20T14:20:23.776Z,71
2018-08-20T14:21:25.897Z,61
2018-08-20T14:22:28.301Z,54
2018-08-20T14:23:30.864Z,53
2018-08-20T14:24:32.957Z,54
2018-08-20T14:25:35.447Z,50
2018-08-20T14:26:37.963Z,48
2018-08-20T14:27:40.350Z,48
2018-08-20T14:28:42.501Z,51
2018-08-20T14:29:44.960Z,57
2018-08-20T14:30:47.083Z,64
2018-08-20T14:31:49.182Z,75
2018-08-20T14:32:51.589Z,80
2018-08-20T14:33:53.704Z,83
2018-08-20T14:34:55.805Z,90
2018-08-20T14:35:57.928Z,92
2018-08-20T14:37:00.155Z,98
2018-08-20T14:38:02.143Z,205
2018-08-20T14:39:04.249Z,116
2018-08-20T14:40:06.364Z,110
2018-08-20T14:41:08.474Z,255
2018-08-20T14:42:10.932Z,301
2018-08-20T14:43:13.022Z,322
2018-08-20T14:44:15.125Z,285
2018-08-20T14:45:17.241Z,284
2018-08-20T14:46:19.704Z,210
2018-08-20T14:47:22.195Z,83
2018-08-20T14:48:24.619Z,89
2018-08-20T14:49:26.734Z,95
2018-08-20T14:50:28.840Z,228